createdAt,value
2023-01-20T00:00:45.526Z,17.25
2023-01-20T00:01:48.423Z,15.80
2023-01-20T00:02:51.433Z,17.33
2023-01-20T00:03:55.312Z,18.13
2023-01-20T00:04:57.074Z,19.67
2023-01-20T00:05:59.603Z,20.85
2023-01-20T00:07:01.198Z,14.55
2023-01-20T00:08:03.751Z,15.43
2023-01-20T00:09:05.709Z,15.38
2023-01-20T00:10:09.653Z,16.63
2023-01-20T00:11:13.094Z,15.55
2023-01-20T00:12:15.592Z,19.02
2023-01-20T00:13:17.210Z,16.98
2023-01-20T00:14:23.666Z,17.98
2023-01-20T00:15:25.470Z,14.95
2023-01-20T00:16:29.223Z,17.38
2023-01-20T00:17:33.241Z,18.80
2023-01-20T00:18:37.928Z,15.18
2023-01-20T00:19:39.522Z,15.00
2023-01-20T00:20:42.288Z,16.10
2023-01-20T00:21:44.283Z,18.73
2023-01-20T00:22:46.977Z,18.45
2023-01-20T00:23:49.247Z,16.58
2023-01-20T00:24:51.720Z,16.60
2023-01-20T00:25:53.229Z,16.25
2023-01-20T00:26:56.079Z,15.95
2023-01-20T00:27:57.812Z,18.52
2023-01-20T00:29:00.345Z,15.52
2023-01-20T00:30:02.030Z,15.27
2023-01-20T00:31:16.384Z,16.40
2023-01-20T00:32:18.924Z,13.43
2023-01-20T00:33:20.471Z,17.33
2023-01-20T00:34:24.378Z,17.27
2023-01-20T00:35:27.144Z,15.88
2023-01-20T00:36:32.398Z,16.77
2023-01-20T00:37:34.032Z,16.50
2023-01-20T00:38:36.667Z,14.65
2023-01-20T00:39:39.295Z,18.80
2023-01-20T00:40:40.995Z,15.48
2023-01-20T00:41:43.487Z,17.35
2023-01-20T00:42:45.247Z,14.98
2023-01-20T00:43:47.974Z,15.63
2023-01-20T00:44:49.523Z,16.38
2023-01-20T00:45:52.141Z,14.20
2023-01-20T00:46:54.754Z,15.65
2023-01-20T00:47:56.370Z,16.50
2023-01-20T00:48:59.097Z,16.33
2023-01-20T00:50:02.056Z,15.30
2023-01-20T00:51:06.020Z,14.82
2023-01-20T00:52:08.569Z,17.90
2023-01-20T00:53:10.148Z,14.45
2023-01-20T00:54:12.674Z,17.98
2023-01-20T00:55:14.795Z,13.98
2023-01-20T00:56:17.537Z,17.08
2023-01-20T00:57:19.090Z,18.42
2023-01-20T00:58:22.532Z,19.30
2023-01-20T00:59:25.251Z,16.05
2023-01-20T01:00:27.811Z,15.70
2023-01-20T01:01:29.615Z,18.33
2023-01-20T01:02:32.597Z,14.20
2023-01-20T01:03:34.496Z,15.75
2023-01-20T01:04:37.043Z,16.40
2023-01-20T01:05:40.121Z,17.10
2023-01-20T01:06:42.706Z,15.82
2023-01-20T01:07:44.341Z,16.35
2023-01-20T01:08:47.018Z,18.05
2023-01-20T01:09:48.610Z,16.10
2023-01-20T01:10:51.143Z,15.55
2023-01-20T01:11:53.020Z,13.90
2023-01-20T01:12:55.714Z,15.43
2023-01-20T01:13:58.247Z,14.82
2023-01-20T01:14:59.786Z,17.60
2023-01-20T01:16:02.436Z,15.50
2023-01-20T01:17:04.996Z,20.42
2023-01-20T01:18:06.703Z,16.13
2023-01-20T01:19:09.713Z,18.40
2023-01-20T01:20:12.437Z,15.48
2023-01-20T01:21:18.169Z,14.20
2023-01-20T01:22:19.842Z,14.57
2023-01-20T01:23:25.314Z,14.98
2023-01-20T01:24:26.984Z,17.70
2023-01-20T01:25:29.458Z,14.02
2023-01-20T01:26:31.064Z,16.10
2023-01-20T01:27:35.682Z,14.98
2023-01-20T01:28:37.268Z,14.93
2023-01-20T01:29:40.287Z,14.90
2023-01-20T01:30:42.046Z,15.07
2023-01-20T01:31:44.706Z,15.70
2023-01-20T01:32:47.242Z,18.48
2023-01-20T01:33:50.151Z,17.33
2023-01-20T01:34:51.778Z,15.45
2023-01-20T01:35:57.388Z,17.25
2023-01-20T01:37:00.508Z,18.38
2023-01-20T01:38:03.215Z,15.63
2023-01-20T01:39:04.881Z,14.57
2023-01-20T01:40:11.915Z,18.00
2023-01-20T01:41:18.729Z,18.95
2023-01-20T01:42:25.302Z,14.38
2023-01-20T01:43:29.113Z,15.23
2023-01-20T01:44:39.249Z,18.33
2023-01-20T01:45:40.853Z,19.15
2023-01-20T01:46:44.191Z,16.27
2023-01-20T01:47:49.263Z,16.60
2023-01-20T01:48:52.036Z,13.82
2023-01-20T01:49:53.657Z,17.58
2023-01-20T01:50:59.614Z,15.15
2023-01-20T01:52:09.061Z,17.23
2023-01-20T01:53:11.939Z,19.65
2023-01-20T01:54:17.525Z,17.70
2023-01-20T01:55:23.378Z,13.90
2023-01-20T01:56:28.390Z,16.50
2023-01-20T01:57:31.953Z,18.00
2023-01-20T01:58:38.126Z,12.27
2023-01-20T01:59:39.759Z,15.98
2023-01-20T02:00:43.300Z,14.57
2023-01-20T02:01:49.577Z,14.20
2023-01-20T02:02:52.887Z,16.33
2023-01-20T02:03:58.844Z,15.82
2023-01-20T02:05:01.376Z,16.52
2023-01-20T02:06:04.100Z,16.92
2023-01-20T02:07:12.689Z,16.85
2023-01-20T02:08:14.318Z,18.88
2023-01-20T02:09:16.869Z,18.52
2023-01-20T02:10:18.989Z,16.50
2023-01-20T02:11:22.058Z,16.50
2023-01-20T02:12:23.896Z,16.85
2023-01-20T02:13:26.627Z,17.35
2023-01-20T02:14:33.525Z,16.58
2023-01-20T02:15:43.363Z,15.90
2023-01-20T02:17:00.774Z,12.97
2023-01-20T02:18:20.438Z,23.15
2023-01-20T02:19:54.019Z,18.30
2023-01-20T02:21:18.345Z,17.05
2023-01-20T02:22:36.616Z,16.90
2023-01-20T02:23:58.785Z,15.95
2023-01-20T02:25:26.666Z,16.67
2023-01-20T02:26:48.186Z,17.67
2023-01-20T02:28:28.156Z,16.45
2023-01-20T02:30:08.727Z,17.48
2023-01-20T02:31:37.977Z,14.18
2023-01-20T02:32:50.999Z,20.30
2023-01-20T02:34:00.794Z,16.73
2023-01-20T02:35:11.097Z,16.77
2023-01-20T02:36:19.833Z,13.43
2023-01-20T02:37:26.371Z,13.77
2023-01-20T02:38:36.195Z,16.27
2023-01-20T02:39:44.338Z,12.88
2023-01-20T02:40:56.690Z,16.98
2023-01-20T02:42:02.309Z,16.30
2023-01-20T02:43:11.673Z,17.73
2023-01-20T02:44:19.974Z,16.60
2023-01-20T02:45:26.456Z,17.92
2023-01-20T02:46:38.314Z,19.90
2023-01-20T02:47:51.937Z,16.20
2023-01-20T02:49:00.713Z,15.20
2023-01-20T02:50:11.244Z,10.88
2023-01-20T02:51:18.515Z,19.30
2023-01-20T02:52:24.005Z,17.20
2023-01-20T02:53:32.833Z,16.17
2023-01-20T02:54:38.464Z,14.75
2023-01-20T02:55:44.174Z,15.77
2023-01-20T02:56:49.280Z,15.05
2023-01-20T02:57:56.385Z,17.83
2023-01-20T02:59:02.590Z,16.55
2023-01-20T03:00:09.767Z,15.80
2023-01-20T03:01:18.630Z,18.40
2023-01-20T03:02:23.767Z,16.05
2023-01-20T03:03:30.612Z,14.82
2023-01-20T03:04:37.452Z,16.70
2023-01-20T03:05:45.165Z,18.25
2023-01-20T03:06:50.936Z,19.60
2023-01-20T03:07:53.956Z,14.88
2023-01-20T03:08:59.739Z,19.40
2023-01-20T03:10:06.179Z,16.92
2023-01-20T03:11:10.313Z,20.80
2023-01-20T03:12:18.541Z,17.25
2023-01-20T03:13:27.024Z,17.88
2023-01-20T03:14:28.869Z,16.13
2023-01-20T03:15:38.239Z,18.98
2023-01-20T03:16:43.758Z,14.68
2023-01-20T03:17:45.312Z,15.40
2023-01-20T03:18:49.732Z,15.73
2023-01-20T03:19:51.397Z,16.40
2023-01-20T03:20:53.921Z,17.63
2023-01-20T03:21:57.827Z,17.25
2023-01-20T03:23:00.374Z,18.88
2023-01-20T03:24:05.426Z,16.80
2023-01-20T03:25:08.790Z,17.85
2023-01-20T03:26:14.394Z,16.45
2023-01-20T03:27:16.151Z,15.95
2023-01-20T03:28:18.696Z,18.98
2023-01-20T03:29:21.456Z,15.52
2023-01-20T03:30:25.478Z,17.40
2023-01-20T03:31:31.856Z,16.60
2023-01-20T03:32:33.824Z,14.57
2023-01-20T03:33:36.722Z,17.52
2023-01-20T03:34:45.040Z,16.80
2023-01-20T03:35:48.021Z,19.13
2023-01-20T03:36:52.025Z,17.17
2023-01-20T03:37:54.755Z,19.67
2023-01-20T03:38:58.173Z,21.33
2023-01-20T03:40:01.763Z,14.82
2023-01-20T03:41:07.242Z,17.10
2023-01-20T03:42:14.122Z,15.88
2023-01-20T03:43:24.226Z,18.95
2023-01-20T03:44:34.768Z,15.52
2023-01-20T03:45:43.127Z,15.13
2023-01-20T03:46:51.771Z,19.50
2023-01-20T03:47:59.080Z,20.52
2023-01-20T03:49:08.582Z,14.52
2023-01-20T03:50:21.642Z,15.43
2023-01-20T03:51:29.068Z,16.17
2023-01-20T03:52:47.800Z,19.55
2023-01-20T03:53:56.648Z,17.67
2023-01-20T03:55:03.217Z,16.88
2023-01-20T03:56:13.151Z,17.20
2023-01-20T03:57:19.693Z,18.77
2023-01-20T03:58:29.837Z,17.63
2023-01-20T03:59:34.428Z,18.52
2023-01-20T04:00:40.756Z,16.95
2023-01-20T04:01:46.145Z,17.73
2023-01-20T04:02:49.576Z,18.33
2023-01-20T04:03:54.034Z,21.85
2023-01-20T04:04:57.927Z,21.60
2023-01-20T04:06:04.119Z,19.55
2023-01-20T04:07:09.245Z,21.27
2023-01-20T04:08:13.917Z,19.63
2023-01-20T04:09:22.991Z,20.13
2023-01-20T04:10:27.628Z,21.80
2023-01-20T04:11:30.415Z,16.85
2023-01-20T04:12:32.353Z,19.65
2023-01-20T04:13:36.860Z,18.08
2023-01-20T04:14:38.515Z,20.50
2023-01-20T04:15:45.591Z,25.05
2023-01-20T04:16:52.119Z,20.20
2023-01-20T04:17:56.787Z,17.80
2023-01-20T04:18:58.365Z,19.77
2023-01-20T04:20:03.537Z,21.02
2023-01-20T04:21:07.219Z,15.50
2023-01-20T04:22:16.873Z,21.73
2023-01-20T04:23:24.470Z,16.38
2023-01-20T04:24:31.914Z,17.23
2023-01-20T04:25:34.707Z,20.13
2023-01-20T04:26:37.410Z,17.00
2023-01-20T04:27:39.100Z,18.65
2023-01-20T04:28:41.765Z,22.35
2023-01-20T04:29:43.492Z,17.65
2023-01-20T04:30:46.152Z,23.85
2023-01-20T04:31:48.188Z,17.02
2023-01-20T04:32:51.125Z,20.27
2023-01-20T04:33:52.776Z,23.35
2023-01-20T04:34:55.461Z,19.63
2023-01-20T04:35:57.098Z,21.63
2023-01-20T04:37:03.805Z,18.63
2023-01-20T04:38:06.704Z,16.60
2023-01-20T04:39:09.645Z,20.27
2023-01-20T04:40:12.037Z,21.92
2023-01-20T04:41:14.684Z,19.73
2023-01-20T04:42:16.284Z,19.25
2023-01-20T04:43:19.202Z,23.58
2023-01-20T04:44:20.927Z,19.65
2023-01-20T04:45:23.758Z,22.48
2023-01-20T04:46:25.432Z,18.38
2023-01-20T04:47:30.864Z,19.20
2023-01-20T04:48:32.540Z,19.35
2023-01-20T04:49:35.392Z,21.35
2023-01-20T04:50:39.209Z,27.33
2023-01-20T04:51:41.907Z,23.27
2023-01-20T04:52:47.593Z,23.50
2023-01-20T04:53:50.184Z,25.88
2023-01-20T04:54:51.768Z,20.45
2023-01-20T04:55:54.372Z,19.77
2023-01-20T04:56:55.968Z,18.65
2023-01-20T04:57:58.559Z,20.65
2023-01-20T04:59:00.495Z,19.50
2023-01-20T05:00:03.214Z,19.35
2023-01-20T05:01:04.887Z,21.15
2023-01-20T05:02:07.814Z,18.10
2023-01-20T05:03:09.611Z,23.25
2023-01-20T05:04:12.408Z,22.33
2023-01-20T05:05:14.632Z,21.27
2023-01-20T05:06:18.889Z,22.60
2023-01-20T05:07:20.508Z,22.30
2023-01-20T05:08:24.440Z,18.27
2023-01-20T05:09:26.051Z,25.85
2023-01-20T05:10:30.388Z,23.48
2023-01-20T05:11:31.992Z,20.23
2023-01-20T05:12:34.555Z,21.23
2023-01-20T05:13:39.680Z,20.77
2023-01-20T05:14:42.297Z,18.98
2023-01-20T05:15:44.604Z,20.80
2023-01-20T05:16:47.787Z,18.08
2023-01-20T05:17:49.613Z,18.08
2023-01-20T05:18:52.358Z,19.45
2023-01-20T05:19:54.120Z,25.77
2023-01-20T05:20:56.735Z,18.85
2023-01-20T05:21:59.706Z,19.95
2023-01-20T05:23:02.448Z,19.88
2023-01-20T05:24:05.993Z,18.77
2023-01-20T05:25:09.696Z,21.00
2023-01-20T05:26:11.471Z,18.08
2023-01-20T05:27:16.555Z,22.08
2023-01-20T05:28:18.741Z,20.15
2023-01-20T05:29:21.361Z,19.67
2023-01-20T05:30:22.997Z,22.10
2023-01-20T05:31:26.023Z,19.90
2023-01-20T05:32:27.674Z,25.52
2023-01-20T05:33:30.344Z,23.75
2023-01-20T05:34:34.512Z,21.83
2023-01-20T05:35:38.619Z,19.70
2023-01-20T05:36:40.376Z,20.92
2023-01-20T05:37:42.970Z,22.83
2023-01-20T05:38:44.590Z,20.17
2023-01-20T05:39:48.595Z,20.48
2023-01-20T05:40:50.503Z,22.10
2023-01-20T05:41:53.144Z,23.85
2023-01-20T05:42:58.990Z,19.10
2023-01-20T05:44:01.647Z,22.40
2023-01-20T05:45:03.694Z,19.17
2023-01-20T05:46:07.010Z,22.63
2023-01-20T05:47:08.838Z,19.17
2023-01-20T05:48:11.425Z,21.83
2023-01-20T05:49:14.336Z,24.00
2023-01-20T05:50:17.490Z,22.27
2023-01-20T05:51:19.350Z,22.02
2023-01-20T05:52:22.267Z,18.42
2023-01-20T05:53:23.922Z,25.80
2023-01-20T05:54:27.151Z,26.67
2023-01-20T05:55:30.018Z,22.75
2023-01-20T05:56:32.564Z,18.70
2023-01-20T05:57:34.129Z,19.73
2023-01-20T05:58:36.604Z,21.67
2023-01-20T05:59:38.158Z,19.13
2023-01-20T06:00:40.703Z,19.90
2023-01-20T06:01:42.716Z,22.83
2023-01-20T06:02:45.560Z,18.00
2023-01-20T06:03:47.214Z,20.00
2023-01-20T06:04:50.030Z,19.92
2023-01-20T06:05:51.612Z,21.50
2023-01-20T06:06:54.271Z,22.10
2023-01-20T06:07:56.243Z,21.67
2023-01-20T06:08:58.805Z,22.15
2023-01-20T06:10:00.429Z,20.88
2023-01-20T06:11:04.364Z,19.50
2023-01-20T06:12:06.513Z,20.00
2023-01-20T06:13:09.360Z,22.58
2023-01-20T06:14:10.950Z,20.85
2023-01-20T06:15:13.680Z,19.58
2023-01-20T06:16:17.836Z,23.58
2023-01-20T06:17:21.794Z,20.30
2023-01-20T06:18:25.754Z,19.48
2023-01-20T06:19:27.285Z,19.75
2023-01-20T06:20:32.239Z,19.23
2023-01-20T06:21:34.782Z,22.10
2023-01-20T06:22:36.506Z,20.67
2023-01-20T06:23:39.144Z,18.70
2023-01-20T06:24:40.744Z,22.05
2023-01-20T06:25:46.888Z,22.65
2023-01-20T06:26:53.819Z,20.90
2023-01-20T06:27:56.396Z,24.58
2023-01-20T06:28:59.498Z,21.58
2023-01-20T06:30:02.095Z,25.65
2023-01-20T06:31:05.432Z,20.35
2023-01-20T06:32:08.123Z,21.20
2023-01-20T06:33:10.822Z,21.50
2023-01-20T06:34:13.556Z,25.23
2023-01-20T06:35:15.670Z,21.52
2023-01-20T06:36:18.611Z,22.90
2023-01-20T06:37:20.219Z,24.33
2023-01-20T06:38:23.069Z,23.02
2023-01-20T06:39:25.869Z,25.02
2023-01-20T06:40:27.442Z,24.98
2023-01-20T06:41:30.203Z,25.98
2023-01-20T06:42:33.976Z,26.48
2023-01-20T06:43:35.988Z,22.65
2023-01-20T06:44:38.540Z,23.60
2023-01-20T06:45:40.416Z,24.42
2023-01-20T06:46:43.138Z,22.73
2023-01-20T06:47:48.774Z,22.10
2023-01-20T06:48:51.318Z,22.40
2023-01-20T06:49:53.003Z,25.52
2023-01-20T06:51:00.907Z,23.45
2023-01-20T06:52:03.469Z,21.98
2023-01-20T06:53:05.107Z,21.17
2023-01-20T06:54:07.655Z,22.92
2023-01-20T06:55:09.671Z,22.40
2023-01-20T06:56:13.681Z,22.67
2023-01-20T06:57:15.386Z,19.48
2023-01-20T06:58:19.236Z,24.48
2023-01-20T06:59:21.772Z,24.55
2023-01-20T07:00:24.061Z,27.02
2023-01-20T07:01:29.758Z,24.23
2023-01-20T07:02:31.439Z,25.88
2023-01-20T07:03:34.073Z,22.98
2023-01-20T07:04:38.318Z,23.98
2023-01-20T07:05:40.915Z,21.60
2023-01-20T07:06:42.936Z,23.05
2023-01-20T07:07:46.137Z,24.10
2023-01-20T07:08:48.958Z,21.75
2023-01-20T07:09:55.184Z,21.27
2023-01-20T07:10:57.941Z,23.15
2023-01-20T07:12:00.540Z,24.55
2023-01-20T07:13:02.089Z,27.00
2023-01-20T07:14:07.182Z,21.02
2023-01-20T07:15:09.354Z,24.60
2023-01-20T07:16:15.539Z,22.08
2023-01-20T07:17:19.688Z,20.02
2023-01-20T07:18:21.281Z,25.42
2023-01-20T07:19:23.895Z,23.20
2023-01-20T07:20:26.574Z,21.20
2023-01-20T07:21:29.611Z,22.20
2023-01-20T07:22:31.201Z,26.95
2023-01-20T07:23:34.747Z,25.40
2023-01-20T07:24:36.706Z,23.83
2023-01-20T07:25:39.581Z,22.45
2023-01-20T07:26:42.127Z,27.80
2023-01-20T07:27:46.251Z,27.73
2023-01-20T07:28:48.616Z,30.67
2023-01-20T07:29:52.581Z,27.30
2023-01-20T07:30:54.982Z,26.45
2023-01-20T07:31:57.580Z,28.92
2023-01-20T07:32:59.180Z,30.45
2023-01-20T07:34:01.710Z,28.58
2023-01-20T07:35:03.530Z,24.65
2023-01-20T07:36:07.867Z,25.23
2023-01-20T07:37:10.394Z,22.48
2023-01-20T07:38:11.950Z,28.08
2023-01-20T07:39:15.489Z,20.88
2023-01-20T07:40:18.476Z,21.23
2023-01-20T07:41:20.669Z,27.80
2023-01-20T07:42:23.209Z,21.63
2023-01-20T07:43:24.800Z,22.95
2023-01-20T07:44:27.281Z,23.50
2023-01-20T07:45:30.145Z,22.15
2023-01-20T07:46:33.233Z,21.38
2023-01-20T07:47:34.924Z,20.40
2023-01-20T07:48:37.536Z,21.58
2023-01-20T07:49:40.045Z,22.00
2023-01-20T07:50:41.699Z,23.73
2023-01-20T07:51:44.239Z,20.92
2023-01-20T07:52:45.861Z,22.55
2023-01-20T07:53:51.019Z,24.02
2023-01-20T07:54:52.716Z,23.58
2023-01-20T07:55:57.455Z,20.65
2023-01-20T07:57:00.022Z,24.10
2023-01-20T07:58:02.320Z,23.70
2023-01-20T07:59:05.640Z,20.13
2023-01-20T08:00:12.097Z,23.52
2023-01-20T08:01:17.026Z,21.83
2023-01-20T08:02:19.698Z,24.65
2023-01-20T08:03:21.456Z,22.20
2023-01-20T08:04:24.011Z,22.83
2023-01-20T08:05:25.580Z,18.80
2023-01-20T08:06:28.272Z,22.35
2023-01-20T08:07:29.955Z,21.13
2023-01-20T08:08:33.078Z,22.38
2023-01-20T08:09:34.655Z,25.50
2023-01-20T08:10:37.230Z,24.98
2023-01-20T08:11:39.972Z,27.10
2023-01-20T08:12:42.540Z,23.33
2023-01-20T08:13:44.294Z,22.73
2023-01-20T08:14:46.801Z,24.73
2023-01-20T08:15:48.409Z,21.95
2023-01-20T08:16:52.507Z,22.65
2023-01-20T08:17:55.160Z,23.80
2023-01-20T08:18:57.683Z,24.73
2023-01-20T08:19:59.274Z,22.67
2023-01-20T08:21:06.382Z,27.35
2023-01-20T08:22:09.098Z,22.38
2023-01-20T08:23:10.711Z,24.92
2023-01-20T08:24:13.293Z,29.35
2023-01-20T08:25:15.519Z,28.75
2023-01-20T08:26:19.293Z,26.83
2023-01-20T08:27:22.103Z,23.00
2023-01-20T08:28:23.617Z,24.85
2023-01-20T08:29:26.544Z,20.95
2023-01-20T08:30:29.071Z,26.00
2023-01-20T08:31:30.791Z,19.45
2023-01-20T08:32:34.851Z,22.70
2023-01-20T08:33:37.066Z,22.25
2023-01-20T08:34:39.643Z,22.33
2023-01-20T08:35:42.183Z,25.23
2023-01-20T08:36:44.713Z,25.20
2023-01-20T08:37:46.701Z,21.83
2023-01-20T08:38:50.118Z,22.27
2023-01-20T08:39:51.958Z,21.98
2023-01-20T08:40:54.585Z,20.83
2023-01-20T08:41:57.247Z,23.83
2023-01-20T08:42:59.168Z,21.67
2023-01-20T08:44:04.391Z,22.00
2023-01-20T08:45:07.785Z,19.63
2023-01-20T08:46:12.396Z,22.52
2023-01-20T08:47:14.997Z,20.40
2023-01-20T08:48:19.957Z,22.15
2023-01-20T08:49:23.606Z,23.90
2023-01-20T08:50:25.520Z,20.00
2023-01-20T08:51:31.163Z,27.08
2023-01-20T08:52:34.061Z,23.52
2023-01-20T08:53:36.257Z,20.42
2023-01-20T08:54:38.892Z,22.95
2023-01-20T08:55:41.386Z,22.75
2023-01-20T08:56:45.569Z,22.90
2023-01-20T08:57:48.072Z,22.63
2023-01-20T08:58:50.287Z,20.13
2023-01-20T08:59:52.998Z,21.95
2023-01-20T09:00:55.556Z,22.23
2023-01-20T09:01:58.303Z,22.45
2023-01-20T09:02:59.967Z,24.00
2023-01-20T09:04:07.301Z,24.45
2023-01-20T09:05:10.893Z,18.45
2023-01-20T09:06:14.997Z,21.67
2023-01-20T09:07:18.668Z,23.10
2023-01-20T09:08:20.747Z,23.98
2023-01-20T09:09:24.060Z,24.10
2023-01-20T09:10:25.719Z,27.13
2023-01-20T09:11:28.345Z,22.63
2023-01-20T09:12:31.052Z,23.85
2023-01-20T09:13:32.796Z,24.60
2023-01-20T09:14:35.376Z,23.35
2023-01-20T09:15:37.105Z,20.70
2023-01-20T09:16:40.039Z,19.30
2023-01-20T09:17:42.678Z,21.00
2023-01-20T09:18:44.608Z,24.10
2023-01-20T09:19:48.638Z,23.77
2023-01-20T09:20:53.742Z,26.42
2023-01-20T09:21:57.484Z,29.00
2023-01-20T09:23:02.794Z,30.67
2023-01-20T09:24:06.290Z,22.30
2023-01-20T09:25:11.576Z,20.10
2023-01-20T09:26:29.617Z,22.35
2023-01-20T09:27:37.206Z,21.52
2023-01-20T09:28:39.764Z,22.27
2023-01-20T09:29:42.316Z,24.00
2023-01-20T09:30:45.135Z,20.98
2023-01-20T09:31:58.140Z,21.20
2023-01-20T09:33:01.016Z,21.27
2023-01-20T09:34:03.815Z,22.88
2023-01-20T09:35:11.472Z,21.52
2023-01-20T09:36:14.318Z,23.05
2023-01-20T09:37:36.319Z,22.50
2023-01-20T09:38:58.237Z,19.58
2023-01-20T09:40:18.651Z,25.65
2023-01-20T09:41:54.742Z,17.90
2023-01-20T09:43:26.172Z,20.02
2023-01-20T09:44:44.311Z,20.90
2023-01-20T09:45:55.817Z,22.42
2023-01-20T09:47:21.068Z,24.48
2023-01-20T09:48:53.705Z,21.50
2023-01-20T09:50:49.317Z,24.33
2023-01-20T09:52:19.262Z,20.13
2023-01-20T09:53:35.091Z,26.45
2023-01-20T09:54:44.168Z,25.77
2023-01-20T09:55:50.928Z,22.63
2023-01-20T09:56:57.581Z,22.95
2023-01-20T09:58:11.408Z,21.52
2023-01-20T09:59:20.753Z,20.50
2023-01-20T10:00:25.051Z,27.75
2023-01-20T10:01:32.756Z,25.52
2023-01-20T10:02:37.585Z,23.95
2023-01-20T10:03:48.757Z,25.75
2023-01-20T10:04:54.651Z,22.88
2023-01-20T10:06:03.920Z,23.48
2023-01-20T10:07:13.160Z,23.50
2023-01-20T10:08:20.253Z,21.40
2023-01-20T10:09:33.463Z,20.05
2023-01-20T10:10:42.065Z,25.25
2023-01-20T10:11:48.098Z,24.88
2023-01-20T10:12:55.207Z,23.73
2023-01-20T10:14:09.629Z,26.02
2023-01-20T10:15:17.874Z,23.80
2023-01-20T10:16:28.545Z,24.77
2023-01-20T10:17:39.171Z,18.42
2023-01-20T10:18:47.489Z,15.93
2023-01-20T10:19:56.238Z,23.40
2023-01-20T10:21:02.987Z,24.48
2023-01-20T10:22:11.821Z,24.25
2023-01-20T10:23:21.435Z,24.50
2023-01-20T10:24:28.877Z,21.70
2023-01-20T10:25:39.229Z,22.33
2023-01-20T10:26:47.844Z,16.33
2023-01-20T10:27:55.797Z,22.40
2023-01-20T10:29:01.919Z,20.98
2023-01-20T10:30:10.419Z,17.05
2023-01-20T10:31:15.660Z,23.98
2023-01-20T10:32:29.550Z,19.38
2023-01-20T10:33:36.059Z,23.55
2023-01-20T10:34:44.529Z,21.08
2023-01-20T10:35:51.127Z,22.88
2023-01-20T10:37:03.896Z,21.70
2023-01-20T10:38:19.245Z,18.75
2023-01-20T10:39:31.015Z,17.00
2023-01-20T10:40:39.655Z,18.70
2023-01-20T10:41:47.401Z,23.45
2023-01-20T10:42:58.013Z,20.50
2023-01-20T10:44:01.877Z,24.52
2023-01-20T10:45:09.489Z,19.55
2023-01-20T10:46:23.984Z,21.98
2023-01-20T10:47:43.545Z,21.10
2023-01-20T10:49:06.640Z,20.95
2023-01-20T10:50:24.217Z,20.85
2023-01-20T10:51:40.767Z,20.38
2023-01-20T10:53:04.181Z,19.75
2023-01-20T10:54:23.732Z,20.08
2023-01-20T10:55:41.472Z,18.15
2023-01-20T10:56:53.755Z,19.95
2023-01-20T10:58:04.450Z,18.25
2023-01-20T10:59:11.258Z,12.13
2023-01-20T11:00:25.089Z,18.60
2023-01-20T11:01:30.203Z,18.58
2023-01-20T11:02:35.832Z,24.40
2023-01-20T11:03:42.922Z,22.63
2023-01-20T11:04:47.785Z,20.77
2023-01-20T11:05:53.138Z,22.15
2023-01-20T11:07:03.768Z,23.15
2023-01-20T11:08:16.495Z,15.38
2023-01-20T11:09:28.134Z,22.55
2023-01-20T11:10:36.407Z,22.70
2023-01-20T11:11:43.247Z,18.08
2023-01-20T11:12:54.213Z,19.67
2023-01-20T11:13:59.641Z,20.65
2023-01-20T11:15:03.577Z,18.23
2023-01-20T11:16:15.101Z,19.88
2023-01-20T11:17:22.357Z,23.05
2023-01-20T11:18:28.320Z,20.85
2023-01-20T11:19:46.377Z,20.23
2023-01-20T11:20:50.120Z,18.25
2023-01-20T11:21:53.812Z,22.52
2023-01-20T11:22:56.914Z,21.92
2023-01-20T11:24:01.792Z,21.85
2023-01-20T11:25:06.520Z,20.73
2023-01-20T11:26:19.668Z,19.25
2023-01-20T11:27:25.651Z,21.15
2023-01-20T11:28:32.936Z,22.05
2023-01-20T11:29:43.461Z,20.38
2023-01-20T11:30:51.975Z,14.32
2023-01-20T11:31:56.796Z,23.20
2023-01-20T11:33:11.125Z,23.08
2023-01-20T11:34:25.406Z,21.38
2023-01-20T11:35:28.076Z,22.52
2023-01-20T11:36:29.893Z,20.45
2023-01-20T11:37:40.461Z,18.33
2023-01-20T11:38:44.823Z,16.38
2023-01-20T11:40:01.115Z,19.35
2023-01-20T11:41:04.043Z,17.88
2023-01-20T11:42:17.175Z,17.10
2023-01-20T11:43:29.637Z,20.95
2023-01-20T11:44:31.357Z,18.25
2023-01-20T11:45:36.132Z,21.30
2023-01-20T11:46:38.420Z,19.25
2023-01-20T11:47:41.276Z,16.08
2023-01-20T11:48:46.085Z,18.17
2023-01-20T11:50:20.910Z,17.80
2023-01-20T11:51:26.447Z,17.58
2023-01-20T11:52:28.202Z,19.00
2023-01-20T11:53:32.433Z,18.45
2023-01-20T11:54:37.192Z,20.73
2023-01-20T11:55:47.264Z,20.30
2023-01-20T11:56:54.369Z,25.75
2023-01-20T11:57:59.587Z,20.90
2023-01-20T11:59:05.597Z,21.92
2023-01-20T12:00:31.530Z,19.55
2023-01-20T12:01:52.881Z,21.90
2023-01-20T12:03:00.617Z,20.02
2023-01-20T12:04:24.382Z,20.02
2023-01-20T12:05:36.090Z,21.17
2023-01-20T12:06:48.141Z,21.27
2023-01-20T12:07:53.385Z,21.33
2023-01-20T12:09:01.542Z,22.80
2023-01-20T12:10:13.093Z,18.63
2023-01-20T12:11:19.355Z,20.52
2023-01-20T12:12:30.846Z,20.95
2023-01-20T12:13:59.691Z,21.17
2023-01-20T12:15:06.028Z,20.65
2023-01-20T12:16:12.327Z,23.50
2023-01-20T12:17:27.147Z,21.15
2023-01-20T12:18:35.727Z,20.73
2023-01-20T12:19:51.171Z,22.27
2023-01-20T12:21:00.258Z,20.80
2023-01-20T12:22:12.013Z,20.30
2023-01-20T12:23:25.055Z,23.90
2023-01-20T12:24:52.519Z,20.95
2023-01-20T12:26:00.620Z,19.25
2023-01-20T12:27:03.758Z,23.10
2023-01-20T12:28:14.240Z,24.23
2023-01-20T12:29:22.516Z,18.15
2023-01-20T12:30:44.179Z,22.20
2023-01-20T12:31:49.405Z,20.52
2023-01-20T12:32:51.219Z,23.05
2023-01-20T12:34:00.581Z,22.80
2023-01-20T12:35:11.401Z,21.05
2023-01-20T12:36:37.632Z,20.20
2023-01-20T12:37:47.796Z,22.92
2023-01-20T12:39:16.863Z,17.88
2023-01-20T12:40:33.754Z,24.20
2023-01-20T12:41:54.867Z,23.20
2023-01-20T12:43:32.117Z,19.52
2023-01-20T12:44:42.521Z,17.48
2023-01-20T12:46:10.458Z,19.52
2023-01-20T12:47:25.748Z,18.85
2023-01-20T12:48:44.895Z,16.98
2023-01-20T12:50:04.346Z,20.20
2023-01-20T12:51:20.598Z,19.45
2023-01-20T12:52:46.117Z,19.20
2023-01-20T12:54:04.453Z,19.52
2023-01-20T12:55:22.904Z,23.95
2023-01-20T12:56:37.215Z,17.25
2023-01-20T12:57:50.290Z,18.50
2023-01-20T12:59:04.405Z,22.20
2023-01-20T13:00:24.301Z,19.48
2023-01-20T13:01:43.750Z,21.17
2023-01-20T13:03:22.453Z,19.17
2023-01-20T13:04:53.074Z,17.20
2023-01-20T13:06:28.309Z,16.75
2023-01-20T13:07:49.824Z,18.45
2023-01-20T13:08:58.391Z,13.48
2023-01-20T13:10:16.955Z,16.80
2023-01-20T13:11:29.891Z,12.00
2023-01-20T13:12:46.941Z,14.18
2023-01-20T13:14:07.608Z,12.98
2023-01-20T13:15:20.351Z,10.40
2023-01-20T13:16:33.933Z,12.57
2023-01-20T13:17:43.362Z,16.65
2023-01-20T13:19:03.540Z,11.88
2023-01-20T13:20:17.572Z,13.07
2023-01-20T13:21:21.361Z,11.05
2023-01-20T13:22:25.039Z,10.30
2023-01-20T13:23:30.471Z,10.93
2023-01-20T13:24:32.382Z,15.10
2023-01-20T13:25:35.949Z,14.82
2023-01-20T13:26:39.067Z,13.45
2023-01-20T13:27:44.851Z,11.90
2023-01-20T13:28:54.040Z,13.95
2023-01-20T13:29:59.148Z,10.85
2023-01-20T13:31:23.006Z,12.45
2023-01-20T13:32:38.299Z,9.65
2023-01-20T13:33:42.935Z,13.02
2023-01-20T13:34:44.548Z,12.32
2023-01-20T13:35:51.384Z,12.00
2023-01-20T13:37:24.436Z,12.98
2023-01-20T13:38:31.007Z,9.40
2023-01-20T13:39:40.975Z,12.48
2023-01-20T13:40:55.471Z,11.15
2023-01-20T13:41:57.185Z,13.30
2023-01-20T13:42:59.743Z,13.75
2023-01-20T13:44:22.452Z,12.60
2023-01-20T13:45:27.448Z,15.80
2023-01-20T13:46:47.445Z,16.05
2023-01-20T13:47:54.333Z,14.60
2023-01-20T13:49:25.696Z,12.90
2023-01-20T13:50:31.837Z,17.83
2023-01-20T13:51:45.054Z,14.43
2023-01-20T13:53:13.326Z,16.95
2023-01-20T13:54:44.036Z,16.77
2023-01-20T13:55:58.037Z,15.55
2023-01-20T13:57:33.879Z,17.85
2023-01-20T13:58:36.404Z,13.50
2023-01-20T13:59:37.961Z,17.15
2023-01-20T14:00:40.706Z,19.05
2023-01-20T14:01:43.400Z,19.33
2023-01-20T14:02:46.821Z,14.70
2023-01-20T14:04:04.550Z,15.75
2023-01-20T14:05:20.840Z,16.95
2023-01-20T14:06:26.088Z,21.95
2023-01-20T14:07:30.558Z,18.02
2023-01-20T14:08:42.525Z,16.50
2023-01-20T14:09:52.187Z,16.65
2023-01-20T14:11:05.939Z,18.50
2023-01-20T14:12:08.618Z,19.73
2023-01-20T14:13:11.472Z,19.65
2023-01-20T14:14:18.594Z,17.88
2023-01-20T14:15:26.786Z,19.02
2023-01-20T14:16:31.312Z,15.60
2023-01-20T14:17:32.972Z,18.05